Sylvan Beach, Texas
Current Conditions -  °F | °C
As of 9:50 AM on Thursday 30 Oct 2014 (Local Time) from KEFD Reporting Station
Clear Clear  
Wind Chill: 72°   Ceiling: Unl
Heat Index: 72°   Visibility: 10mi
Dew Point: 57°   Wind: 7mph
Humidity: 60%   Direction: 50°NE
Pressure: 30.14"   Gusts: NA
Location:  29.6785°N, 95.0483°W
Report Text: KEFD 301450Z 05006KT 10SM CLR 22/14 A3014
Loading
Personal Weather Stations






























Interactive Weather Map
Tropical Storm Tracking
New forecast layout! Learn more

10-Day Weather Forecast

Advertisements
Track Severe Weather on mobile